sensor_id;sensor_type;location;lat;lon;timestamp;P1;durP1;ratioP1;P2;durP2;ratioP2
52816;SDS011;38687;43.330;21.924;2024-03-29T00:00:24;7.07;;;3.40;;
52816;SDS011;38687;43.330;21.924;2024-03-29T00:02:49;5.53;;;3.00;;
52816;SDS011;38687;43.330;21.924;2024-03-29T00:05:14;4.85;;;3.17;;
52816;SDS011;38687;43.330;21.924;2024-03-29T00:07:40;3.30;;;3.00;;
52816;SDS011;38687;43.330;21.924;2024-03-29T00:10:05;6.20;;;3.05;;
52816;SDS011;38687;43.330;21.924;2024-03-29T00:12:30;5.47;;;3.10;;
52816;SDS011;38687;43.330;21.924;2024-03-29T00:14:56;3.78;;;2.70;;
52816;SDS011;38687;43.330;21.924;2024-03-29T00:17:21;6.43;;;2.70;;
52816;SDS011;38687;43.330;21.924;2024-03-29T00:19:46;5.18;;;2.50;;
52816;SDS011;38687;43.330;21.924;2024-03-29T00:22:12;7.40;;;3.63;;
52816;SDS011;38687;43.330;21.924;2024-03-29T00:24:37;4.40;;;2.25;;
52816;SDS011;38687;43.330;21.924;2024-03-29T00:27:02;6.03;;;3.00;;
52816;SDS011;38687;43.330;21.924;2024-03-29T00:29:28;7.80;;;2.20;;
52816;SDS011;38687;43.330;21.924;2024-03-29T00:31:53;3.78;;;2.22;;
52816;SDS011;38687;43.330;21.924;2024-03-29T00:34:18;4.72;;;3.33;;
52816;SDS011;38687;43.330;21.924;2024-03-29T00:36:43;5.13;;;2.95;;
52816;SDS011;38687;43.330;21.924;2024-03-29T00:39:09;5.63;;;3.65;;
52816;SDS011;38687;43.330;21.924;2024-03-29T00:41:36;3.50;;;2.72;;
52816;SDS011;38687;43.330;21.924;2024-03-29T00:44:02;8.00;;;4.55;;
52816;SDS011;38687;43.330;21.924;2024-03-29T00:46:28;3.00;;;2.75;;
52816;SDS011;38687;43.330;21.924;2024-03-29T00:48:54;7.88;;;4.57;;
52816;SDS011;38687;43.330;21.924;2024-03-29T00:51:19;6.13;;;3.28;;
52816;SDS011;38687;43.330;21.924;2024-03-29T00:53:44;5.97;;;4.10;;
52816;SDS011;38687;43.330;21.924;2024-03-29T00:56:09;5.22;;;2.67;;
52816;SDS011;38687;43.330;21.924;2024-03-29T00:58:35;4.63;;;3.40;;
52816;SDS011;38687;43.330;21.924;2024-03-29T01:01:00;5.10;;;3.10;;
52816;SDS011;38687;43.330;21.924;2024-03-29T01:03:25;7.90;;;4.32;;
52816;SDS011;38687;43.330;21.924;2024-03-29T01:05:53;7.50;;;4.88;;
52816;SDS011;38687;43.330;21.924;2024-03-29T01:08:19;4.28;;;3.45;;
52816;SDS011;38687;43.330;21.924;2024-03-29T01:10:46;15.23;;;10.85;;
52816;SDS011;38687;43.330;21.924;2024-03-29T01:13:11;7.38;;;4.70;;
52816;SDS011;38687;43.330;21.924;2024-03-29T01:15:37;5.90;;;3.53;;
52816;SDS011;38687;43.330;21.924;2024-03-29T01:18:02;5.70;;;3.47;;
52816;SDS011;38687;43.330;21.924;2024-03-29T01:20:28;10.07;;;5.60;;
52816;SDS011;38687;43.330;21.924;2024-03-29T01:22:53;6.72;;;4.75;;
52816;SDS011;38687;43.330;21.924;2024-03-29T01:25:20;7.93;;;4.88;;
52816;SDS011;38687;43.330;21.924;2024-03-29T01:27:46;6.53;;;3.92;;
52816;SDS011;38687;43.330;21.924;2024-03-29T01:30:11;8.18;;;4.45;;
52816;SDS011;38687;43.330;21.924;2024-03-29T01:32:38;9.15;;;4.53;;
52816;SDS011;38687;43.330;21.924;2024-03-29T01:35:03;6.38;;;3.72;;
52816;SDS011;38687;43.330;21.924;2024-03-29T01:37:29;7.15;;;3.92;;
52816;SDS011;38687;43.330;21.924;2024-03-29T01:39:59;5.70;;;3.47;;
52816;SDS011;38687;43.330;21.924;2024-03-29T01:42:24;7.05;;;4.22;;
52816;SDS011;38687;43.330;21.924;2024-03-29T01:44:49;4.28;;;2.80;;
52816;SDS011;38687;43.330;21.924;2024-03-29T01:47:15;5.63;;;3.70;;
52816;SDS011;38687;43.330;21.924;2024-03-29T01:49:41;8.75;;;5.00;;
52816;SDS011;38687;43.330;21.924;2024-03-29T01:52:06;7.88;;;5.15;;
52816;SDS011;38687;43.330;21.924;2024-03-29T01:54:32;7.18;;;3.78;;
52816;SDS011;38687;43.330;21.924;2024-03-29T01:56:57;6.40;;;4.22;;
52816;SDS011;38687;43.330;21.924;2024-03-29T01:59:23;8.98;;;4.68;;
52816;SDS011;38687;43.330;21.924;2024-03-29T02:01:48;6.30;;;3.63;;
52816;SDS011;38687;43.330;21.924;2024-03-29T02:04:14;6.43;;;5.15;;
52816;SDS011;38687;43.330;21.924;2024-03-29T02:06:39;8.60;;;5.10;;
52816;SDS011;38687;43.330;21.924;2024-03-29T02:09:05;7.10;;;6.03;;
52816;SDS011;38687;43.330;21.924;2024-03-29T02:11:30;7.28;;;5.35;;
52816;SDS011;38687;43.330;21.924;2024-03-29T02:13:55;17.25;;;8.93;;
52816;SDS011;38687;43.330;21.924;2024-03-29T02:16:21;8.88;;;4.70;;
52816;SDS011;38687;43.330;21.924;2024-03-29T02:18:46;9.02;;;6.47;;
52816;SDS011;38687;43.330;21.924;2024-03-29T02:21:11;10.90;;;5.90;;
52816;SDS011;38687;43.330;21.924;2024-03-29T02:23:37;10.88;;;8.40;;
52816;SDS011;38687;43.330;21.924;2024-03-29T02:26:04;8.60;;;5.38;;
52816;SDS011;38687;43.330;21.924;2024-03-29T02:28:30;11.43;;;9.32;;
52816;SDS011;38687;43.330;21.924;2024-03-29T02:30:55;10.15;;;6.40;;
52816;SDS011;38687;43.330;21.924;2024-03-29T02:33:21;10.57;;;6.72;;
52816;SDS011;38687;43.330;21.924;2024-03-29T02:35:46;12.55;;;6.63;;
52816;SDS011;38687;43.330;21.924;2024-03-29T02:38:11;14.18;;;6.80;;
52816;SDS011;38687;43.330;21.924;2024-03-29T02:40:37;11.45;;;3.63;;
52816;SDS011;38687;43.330;21.924;2024-03-29T02:43:02;9.30;;;5.18;;
52816;SDS011;38687;43.330;21.924;2024-03-29T02:45:27;9.63;;;5.22;;
52816;SDS011;38687;43.330;21.924;2024-03-29T02:47:53;13.07;;;6.43;;
52816;SDS011;38687;43.330;21.924;2024-03-29T02:50:18;10.57;;;6.13;;
52816;SDS011;38687;43.330;21.924;2024-03-29T02:52:43;8.20;;;5.55;;
52816;SDS011;38687;43.330;21.924;2024-03-29T02:55:09;14.15;;;7.68;;
52816;SDS011;38687;43.330;21.924;2024-03-29T02:57:36;10.82;;;6.57;;
52816;SDS011;38687;43.330;21.924;2024-03-29T03:00:01;9.80;;;6.40;;
52816;SDS011;38687;43.330;21.924;2024-03-29T03:02:26;9.60;;;6.47;;
52816;SDS011;38687;43.330;21.924;2024-03-29T03:04:51;10.23;;;5.72;;
52816;SDS011;38687;43.330;21.924;2024-03-29T03:07:17;9.18;;;6.22;;
52816;SDS011;38687;43.330;21.924;2024-03-29T03:10:00;13.90;;;7.45;;
52816;SDS011;38687;43.330;21.924;2024-03-29T03:12:44;11.10;;;7.07;;
52816;SDS011;38687;43.330;21.924;2024-03-29T03:15:09;9.90;;;7.28;;
52816;SDS011;38687;43.330;21.924;2024-03-29T03:17:35;10.07;;;5.05;;
52816;SDS011;38687;43.330;21.924;2024-03-29T03:20:00;9.68;;;7.32;;
52816;SDS011;38687;43.330;21.924;2024-03-29T03:22:25;10.02;;;7.90;;
52816;SDS011;38687;43.330;21.924;2024-03-29T03:24:51;10.77;;;7.03;;
52816;SDS011;38687;43.330;21.924;2024-03-29T03:27:16;10.23;;;7.18;;
52816;SDS011;38687;43.330;21.924;2024-03-29T03:29:41;10.35;;;4.50;;
52816;SDS011;38687;43.330;21.924;2024-03-29T03:32:06;11.50;;;7.97;;
52816;SDS011;38687;43.330;21.924;2024-03-29T03:34:32;12.40;;;7.85;;
52816;SDS011;38687;43.330;21.924;2024-03-29T03:36:58;10.93;;;7.20;;
52816;SDS011;38687;43.330;21.924;2024-03-29T03:39:23;12.80;;;8.52;;
52816;SDS011;38687;43.330;21.924;2024-03-29T03:41:48;10.60;;;8.43;;
52816;SDS011;38687;43.330;21.924;2024-03-29T03:44:15;12.25;;;10.27;;
52816;SDS011;38687;43.330;21.924;2024-03-29T03:46:40;10.23;;;4.95;;
52816;SDS011;38687;43.330;21.924;2024-03-29T03:49:05;12.15;;;10.25;;
52816;SDS011;38687;43.330;21.924;2024-03-29T03:51:31;12.70;;;8.23;;
52816;SDS011;38687;43.330;21.924;2024-03-29T03:53:57;13.63;;;6.57;;
52816;SDS011;38687;43.330;21.924;2024-03-29T03:56:22;14.90;;;8.80;;
52816;SDS011;38687;43.330;21.924;2024-03-29T03:58:48;12.60;;;11.40;;
52816;SDS011;38687;43.330;21.924;2024-03-29T04:01:13;13.98;;;9.35;;
52816;SDS011;38687;43.330;21.924;2024-03-29T04:03:38;14.02;;;12.35;;
52816;SDS011;38687;43.330;21.924;2024-03-29T04:06:05;11.35;;;6.15;;
52816;SDS011;38687;43.330;21.924;2024-03-29T04:08:30;16.58;;;13.88;;
52816;SDS011;38687;43.330;21.924;2024-03-29T04:10:55;13.55;;;10.75;;
52816;SDS011;38687;43.330;21.924;2024-03-29T04:13:22;13.52;;;10.35;;
52816;SDS011;38687;43.330;21.924;2024-03-29T04:15:47;8.52;;;6.57;;
52816;SDS011;38687;43.330;21.924;2024-03-29T04:18:13;8.68;;;6.30;;
52816;SDS011;38687;43.330;21.924;2024-03-29T04:20:38;8.90;;;5.75;;
52816;SDS011;38687;43.330;21.924;2024-03-29T04:23:04;6.97;;;5.40;;
52816;SDS011;38687;43.330;21.924;2024-03-29T04:25:29;3.75;;;3.28;;
52816;SDS011;38687;43.330;21.924;2024-03-29T04:27:54;6.55;;;5.68;;
52816;SDS011;38687;43.330;21.924;2024-03-29T04:30:20;6.35;;;5.10;;
52816;SDS011;38687;43.330;21.924;2024-03-29T04:32:45;7.78;;;5.63;;
52816;SDS011;38687;43.330;21.924;2024-03-29T04:35:10;8.68;;;5.32;;
52816;SDS011;38687;43.330;21.924;2024-03-29T04:37:36;7.47;;;6.50;;
52816;SDS011;38687;43.330;21.924;2024-03-29T04:40:01;7.82;;;6.18;;
52816;SDS011;38687;43.330;21.924;2024-03-29T04:42:28;7.03;;;6.40;;
52816;SDS011;38687;43.330;21.924;2024-03-29T04:44:53;10.10;;;4.68;;
52816;SDS011;38687;43.330;21.924;2024-03-29T04:47:18;11.30;;;8.40;;
52816;SDS011;38687;43.330;21.924;2024-03-29T04:49:44;12.75;;;8.63;;
52816;SDS011;38687;43.330;21.924;2024-03-29T04:52:11;13.40;;;5.85;;
52816;SDS011;38687;43.330;21.924;2024-03-29T04:54:36;11.43;;;8.65;;
52816;SDS011;38687;43.330;21.924;2024-03-29T04:57:02;11.13;;;7.20;;
52816;SDS011;38687;43.330;21.924;2024-03-29T04:59:28;11.35;;;6.85;;
52816;SDS011;38687;43.330;21.924;2024-03-29T05:01:54;10.45;;;7.50;;
52816;SDS011;38687;43.330;21.924;2024-03-29T05:04:21;10.40;;;7.40;;
52816;SDS011;38687;43.330;21.924;2024-03-29T05:06:55;9.15;;;6.35;;
52816;SDS011;38687;43.330;21.924;2024-03-29T05:09:21;10.38;;;7.43;;
52816;SDS011;38687;43.330;21.924;2024-03-29T05:11:47;9.43;;;6.88;;
52816;SDS011;38687;43.330;21.924;2024-03-29T05:14:16;10.18;;;5.85;;
52816;SDS011;38687;43.330;21.924;2024-03-29T05:16:44;12.02;;;7.38;;
52816;SDS011;38687;43.330;21.924;2024-03-29T05:19:10;14.93;;;10.85;;
52816;SDS011;38687;43.330;21.924;2024-03-29T05:21:35;18.05;;;11.65;;
52816;SDS011;38687;43.330;21.924;2024-03-29T05:24:01;22.73;;;16.02;;
52816;SDS011;38687;43.330;21.924;2024-03-29T05:26:29;23.60;;;14.52;;
52816;SDS011;38687;43.330;21.924;2024-03-29T05:28:56;26.80;;;15.65;;
52816;SDS011;38687;43.330;21.924;2024-03-29T05:31:22;23.50;;;13.10;;
52816;SDS011;38687;43.330;21.924;2024-03-29T05:33:47;17.10;;;12.68;;
52816;SDS011;38687;43.330;21.924;2024-03-29T05:36:13;20.65;;;11.80;;
52816;SDS011;38687;43.330;21.924;2024-03-29T05:38:38;23.33;;;15.02;;
52816;SDS011;38687;43.330;21.924;2024-03-29T05:41:04;20.17;;;12.15;;
52816;SDS011;38687;43.330;21.924;2024-03-29T05:43:29;20.40;;;14.10;;
52816;SDS011;38687;43.330;21.924;2024-03-29T05:45:54;19.70;;;9.63;;
52816;SDS011;38687;43.330;21.924;2024-03-29T05:48:20;14.15;;;10.32;;
52816;SDS011;38687;43.330;21.924;2024-03-29T05:50:45;14.30;;;9.00;;
52816;SDS011;38687;43.330;21.924;2024-03-29T05:53:10;14.18;;;9.63;;
52816;SDS011;38687;43.330;21.924;2024-03-29T05:55:36;16.27;;;9.75;;
52816;SDS011;38687;43.330;21.924;2024-03-29T05:58:01;18.40;;;11.13;;
52816;SDS011;38687;43.330;21.924;2024-03-29T06:00:26;16.08;;;11.63;;
52816;SDS011;38687;43.330;21.924;2024-03-29T06:02:52;12.38;;;9.18;;
52816;SDS011;38687;43.330;21.924;2024-03-29T06:05:18;12.80;;;7.80;;
52816;SDS011;38687;43.330;21.924;2024-03-29T06:07:43;12.85;;;7.95;;
52816;SDS011;38687;43.330;21.924;2024-03-29T06:10:08;9.20;;;7.65;;
52816;SDS011;38687;43.330;21.924;2024-03-29T06:12:35;15.57;;;9.55;;
52816;SDS011;38687;43.330;21.924;2024-03-29T06:15:01;18.23;;;10.38;;
52816;SDS011;38687;43.330;21.924;2024-03-29T06:17:45;13.77;;;9.68;;
52816;SDS011;38687;43.330;21.924;2024-03-29T06:20:11;12.05;;;8.15;;
52816;SDS011;38687;43.330;21.924;2024-03-29T06:22:36;14.43;;;9.25;;
52816;SDS011;38687;43.330;21.924;2024-03-29T06:25:01;14.35;;;8.90;;
52816;SDS011;38687;43.330;21.924;2024-03-29T06:27:33;17.35;;;8.57;;
52816;SDS011;38687;43.330;21.924;2024-03-29T06:29:58;15.70;;;8.52;;
52816;SDS011;38687;43.330;21.924;2024-03-29T06:32:24;12.70;;;8.25;;
52816;SDS011;38687;43.330;21.924;2024-03-29T06:34:49;12.57;;;7.97;;
52816;SDS011;38687;43.330;21.924;2024-03-29T06:37:14;16.92;;;9.05;;
52816;SDS011;38687;43.330;21.924;2024-03-29T06:39:40;13.00;;;7.30;;
52816;SDS011;38687;43.330;21.924;2024-03-29T06:42:07;12.82;;;7.70;;
52816;SDS011;38687;43.330;21.924;2024-03-29T06:44:32;8.02;;;5.45;;
52816;SDS011;38687;43.330;21.924;2024-03-29T06:46:58;9.18;;;6.95;;
52816;SDS011;38687;43.330;21.924;2024-03-29T06:49:23;11.32;;;7.97;;
52816;SDS011;38687;43.330;21.924;2024-03-29T06:51:48;9.15;;;6.68;;
52816;SDS011;38687;43.330;21.924;2024-03-29T06:54:13;11.10;;;9.32;;
52816;SDS011;38687;43.330;21.924;2024-03-29T06:56:39;10.90;;;7.28;;
52816;SDS011;38687;43.330;21.924;2024-03-29T06:59:04;11.60;;;10.15;;
52816;SDS011;38687;43.330;21.924;2024-03-29T07:01:29;14.15;;;6.60;;
52816;SDS011;38687;43.330;21.924;2024-03-29T07:03:55;8.15;;;7.15;;
52816;SDS011;38687;43.330;21.924;2024-03-29T07:06:20;6.80;;;6.10;;
52816;SDS011;38687;43.330;21.924;2024-03-29T07:08:46;8.68;;;7.85;;
52816;SDS011;38687;43.330;21.924;2024-03-29T07:11:12;9.10;;;5.50;;
52816;SDS011;38687;43.330;21.924;2024-03-29T07:13:37;13.20;;;9.00;;
52816;SDS011;38687;43.330;21.924;2024-03-29T07:16:03;9.13;;;4.95;;
52816;SDS011;38687;43.330;21.924;2024-03-29T07:18:28;9.27;;;8.27;;
52816;SDS011;38687;43.330;21.924;2024-03-29T07:20:54;9.40;;;5.53;;
52816;SDS011;38687;43.330;21.924;2024-03-29T07:23:19;7.90;;;6.07;;
52816;SDS011;38687;43.330;21.924;2024-03-29T07:25:45;8.05;;;4.60;;
52816;SDS011;38687;43.330;21.924;2024-03-29T07:28:11;8.48;;;4.00;;
52816;SDS011;38687;43.330;21.924;2024-03-29T07:30:40;5.28;;;3.90;;
52816;SDS011;38687;43.330;21.924;2024-03-29T07:33:05;5.03;;;3.25;;
52816;SDS011;38687;43.330;21.924;2024-03-29T07:35:30;3.95;;;3.38;;
52816;SDS011;38687;43.330;21.924;2024-03-29T07:37:56;7.45;;;3.15;;
52816;SDS011;38687;43.330;21.924;2024-03-29T07:40:22;7.30;;;3.65;;
52816;SDS011;38687;43.330;21.924;2024-03-29T07:42:47;5.57;;;4.05;;
52816;SDS011;38687;43.330;21.924;2024-03-29T07:45:12;4.10;;;3.25;;
52816;SDS011;38687;43.330;21.924;2024-03-29T07:47:38;4.68;;;3.60;;
52816;SDS011;38687;43.330;21.924;2024-03-29T07:50:03;4.65;;;3.25;;
52816;SDS011;38687;43.330;21.924;2024-03-29T07:52:29;4.13;;;3.20;;
52816;SDS011;38687;43.330;21.924;2024-03-29T07:54:55;4.97;;;3.08;;
52816;SDS011;38687;43.330;21.924;2024-03-29T07:57:20;4.70;;;3.17;;
52816;SDS011;38687;43.330;21.924;2024-03-29T07:59:46;5.43;;;3.10;;
52816;SDS011;38687;43.330;21.924;2024-03-29T08:02:11;7.05;;;3.53;;
52816;SDS011;38687;43.330;21.924;2024-03-29T08:04:37;6.47;;;3.05;;
52816;SDS011;38687;43.330;21.924;2024-03-29T08:07:03;5.25;;;3.53;;
52816;SDS011;38687;43.330;21.924;2024-03-29T08:09:29;5.00;;;2.70;;
52816;SDS011;38687;43.330;21.924;2024-03-29T08:11:54;5.85;;;3.33;;
52816;SDS011;38687;43.330;21.924;2024-03-29T08:14:19;4.28;;;3.83;;
52816;SDS011;38687;43.330;21.924;2024-03-29T08:16:45;7.28;;;3.30;;
52816;SDS011;38687;43.330;21.924;2024-03-29T08:19:10;7.82;;;5.32;;
52816;SDS011;38687;43.330;21.924;2024-03-29T08:21:35;5.65;;;2.97;;
52816;SDS011;38687;43.330;21.924;2024-03-29T08:24:01;5.60;;;5.00;;
52816;SDS011;38687;43.330;21.924;2024-03-29T08:26:29;3.15;;;2.83;;
52816;SDS011;38687;43.330;21.924;2024-03-29T08:28:54;5.65;;;5.10;;
52816;SDS011;38687;43.330;21.924;2024-03-29T08:31:20;4.88;;;3.15;;
52816;SDS011;38687;43.330;21.924;2024-03-29T08:33:45;5.43;;;4.90;;
52816;SDS011;38687;43.330;21.924;2024-03-29T08:36:11;5.28;;;2.83;;
52816;SDS011;38687;43.330;21.924;2024-03-29T08:38:37;6.25;;;5.78;;
52816;SDS011;38687;43.330;21.924;2024-03-29T08:41:04;3.42;;;2.40;;
52816;SDS011;38687;43.330;21.924;2024-03-29T08:43:29;5.05;;;4.57;;
52816;SDS011;38687;43.330;21.924;2024-03-29T08:45:54;3.83;;;2.47;;
52816;SDS011;38687;43.330;21.924;2024-03-29T08:48:20;5.50;;;3.28;;
52816;SDS011;38687;43.330;21.924;2024-03-29T08:50:45;2.88;;;2.40;;
52816;SDS011;38687;43.330;21.924;2024-03-29T08:53:11;5.57;;;2.85;;
52816;SDS011;38687;43.330;21.924;2024-03-29T08:55:36;6.05;;;2.60;;
52816;SDS011;38687;43.330;21.924;2024-03-29T08:58:02;5.03;;;2.55;;
52816;SDS011;38687;43.330;21.924;2024-03-29T09:00:28;2.95;;;2.40;;
52816;SDS011;38687;43.330;21.924;2024-03-29T09:02:54;6.60;;;2.53;;
52816;SDS011;38687;43.330;21.924;2024-03-29T09:05:19;5.45;;;2.70;;
52816;SDS011;38687;43.330;21.924;2024-03-29T09:07:45;4.82;;;2.47;;
52816;SDS011;38687;43.330;21.924;2024-03-29T09:10:11;4.40;;;2.20;;
52816;SDS011;38687;43.330;21.924;2024-03-29T09:12:36;7.05;;;3.33;;
52816;SDS011;38687;43.330;21.924;2024-03-29T09:15:01;3.20;;;1.95;;
52816;SDS011;38687;43.330;21.924;2024-03-29T09:17:27;2.83;;;1.65;;
52816;SDS011;38687;43.330;21.924;2024-03-29T09:19:52;4.43;;;1.80;;
52816;SDS011;38687;43.330;21.924;2024-03-29T09:22:18;6.15;;;1.75;;
52816;SDS011;38687;43.330;21.924;2024-03-29T09:24:43;6.25;;;2.00;;
52816;SDS011;38687;43.330;21.924;2024-03-29T09:27:08;4.10;;;1.98;;
52816;SDS011;38687;43.330;21.924;2024-03-29T09:29:34;4.50;;;2.10;;
52816;SDS011;38687;43.330;21.924;2024-03-29T09:31:59;3.58;;;1.83;;
52816;SDS011;38687;43.330;21.924;2024-03-29T09:34:26;4.68;;;2.45;;
52816;SDS011;38687;43.330;21.924;2024-03-29T09:36:52;4.63;;;2.05;;
52816;SDS011;38687;43.330;21.924;2024-03-29T09:39:17;3.35;;;2.42;;
52816;SDS011;38687;43.330;21.924;2024-03-29T09:41:43;4.30;;;2.60;;
52816;SDS011;38687;43.330;21.924;2024-03-29T09:44:09;5.90;;;2.33;;
52816;SDS011;38687;43.330;21.924;2024-03-29T09:46:36;4.43;;;2.97;;
52816;SDS011;38687;43.330;21.924;2024-03-29T09:49:04;7.80;;;2.47;;
52816;SDS011;38687;43.330;21.924;2024-03-29T09:51:31;4.95;;;2.10;;
52816;SDS011;38687;43.330;21.924;2024-03-29T09:53:57;2.72;;;2.40;;
52816;SDS011;38687;43.330;21.924;2024-03-29T09:56:25;4.93;;;2.20;;
52816;SDS011;38687;43.330;21.924;2024-03-29T09:58:50;5.45;;;2.40;;
52816;SDS011;38687;43.330;21.924;2024-03-29T10:01:17;5.90;;;2.60;;
52816;SDS011;38687;43.330;21.924;2024-03-29T10:03:44;4.80;;;3.28;;
52816;SDS011;38687;43.330;21.924;2024-03-29T10:06:10;6.35;;;2.58;;
52816;SDS011;38687;43.330;21.924;2024-03-29T10:08:39;6.60;;;2.80;;
52816;SDS011;38687;43.330;21.924;2024-03-29T10:11:05;9.77;;;2.60;;
52816;SDS011;38687;43.330;21.924;2024-03-29T10:13:30;5.40;;;3.10;;
52816;SDS011;38687;43.330;21.924;2024-03-29T10:15:56;4.70;;;2.30;;
52816;SDS011;38687;43.330;21.924;2024-03-29T10:18:28;5.97;;;2.65;;
52816;SDS011;38687;43.330;21.924;2024-03-29T10:23:26;4.72;;;2.90;;
52816;SDS011;38687;43.330;21.924;2024-03-29T10:25:52;5.20;;;1.70;;
52816;SDS011;38687;43.330;21.924;2024-03-29T10:28:18;6.53;;;2.40;;
52816;SDS011;38687;43.330;21.924;2024-03-29T10:30:43;8.98;;;1.85;;
52816;SDS011;38687;43.330;21.924;2024-03-29T10:33:09;7.93;;;3.22;;
52816;SDS011;38687;43.330;21.924;2024-03-29T10:35:34;7.38;;;3.35;;
52816;SDS011;38687;43.330;21.924;2024-03-29T10:38:02;4.78;;;2.17;;
52816;SDS011;38687;43.330;21.924;2024-03-29T10:40:27;5.05;;;2.22;;
52816;SDS011;38687;43.330;21.924;2024-03-29T10:42:53;7.35;;;2.42;;
52816;SDS011;38687;43.330;21.924;2024-03-29T10:45:19;9.32;;;2.15;;
52816;SDS011;38687;43.330;21.924;2024-03-29T10:47:45;5.07;;;1.80;;
52816;SDS011;38687;43.330;21.924;2024-03-29T10:50:14;3.55;;;2.10;;
52816;SDS011;38687;43.330;21.924;2024-03-29T10:52:39;5.70;;;2.33;;
52816;SDS011;38687;43.330;21.924;2024-03-29T10:55:08;4.35;;;2.05;;
52816;SDS011;38687;43.330;21.924;2024-03-29T10:57:34;4.93;;;2.13;;
52816;SDS011;38687;43.330;21.924;2024-03-29T11:00:05;6.68;;;1.73;;
52816;SDS011;38687;43.330;21.924;2024-03-29T11:02:42;3.65;;;1.90;;
52816;SDS011;38687;43.330;21.924;2024-03-29T11:05:12;6.80;;;2.65;;
52816;SDS011;38687;43.330;21.924;2024-03-29T11:07:39;4.80;;;1.92;;
52816;SDS011;38687;43.330;21.924;2024-03-29T11:10:05;5.85;;;1.70;;
52816;SDS011;38687;43.330;21.924;2024-03-29T11:12:30;5.35;;;1.52;;
52816;SDS011;38687;43.330;21.924;2024-03-29T11:15:02;4.03;;;1.55;;
52816;SDS011;38687;43.330;21.924;2024-03-29T11:17:29;7.65;;;1.65;;
52816;SDS011;38687;43.330;21.924;2024-03-29T11:19:55;4.70;;;1.73;;
52816;SDS011;38687;43.330;21.924;2024-03-29T11:22:21;6.10;;;1.73;;
52816;SDS011;38687;43.330;21.924;2024-03-29T11:24:46;10.02;;;2.15;;
52816;SDS011;38687;43.330;21.924;2024-03-29T11:27:13;6.07;;;1.70;;
52816;SDS011;38687;43.330;21.924;2024-03-29T11:29:41;4.68;;;2.13;;
52816;SDS011;38687;43.330;21.924;2024-03-29T11:32:07;6.57;;;2.10;;
52816;SDS011;38687;43.330;21.924;2024-03-29T11:34:32;5.68;;;2.53;;
52816;SDS011;38687;43.330;21.924;2024-03-29T11:37:09;7.55;;;1.65;;
52816;SDS011;38687;43.330;21.924;2024-03-29T11:39:34;6.05;;;1.98;;
52816;SDS011;38687;43.330;21.924;2024-03-29T11:42:00;4.55;;;2.00;;
52816;SDS011;38687;43.330;21.924;2024-03-29T11:44:26;6.55;;;2.10;;
52816;SDS011;38687;43.330;21.924;2024-03-29T11:46:51;4.03;;;1.85;;
52816;SDS011;38687;43.330;21.924;2024-03-29T11:49:17;4.05;;;2.15;;
52816;SDS011;38687;43.330;21.924;2024-03-29T11:51:42;4.05;;;1.70;;
52816;SDS011;38687;43.330;21.924;2024-03-29T11:54:07;8.40;;;2.58;;
52816;SDS011;38687;43.330;21.924;2024-03-29T11:56:33;4.68;;;1.73;;
52816;SDS011;38687;43.330;21.924;2024-03-29T11:58:58;6.72;;;2.55;;
52816;SDS011;38687;43.330;21.924;2024-03-29T12:01:28;4.80;;;1.92;;
52816;SDS011;38687;43.330;21.924;2024-03-29T12:03:54;3.83;;;1.90;;
52816;SDS011;38687;43.330;21.924;2024-03-29T12:06:19;5.45;;;2.05;;
52816;SDS011;38687;43.330;21.924;2024-03-29T12:08:45;6.65;;;2.08;;
52816;SDS011;38687;43.330;21.924;2024-03-29T12:11:10;5.00;;;1.77;;
52816;SDS011;38687;43.330;21.924;2024-03-29T12:13:36;7.40;;;2.30;;
52816;SDS011;38687;43.330;21.924;2024-03-29T12:16:01;6.55;;;1.85;;
52816;SDS011;38687;43.330;21.924;2024-03-29T12:18:28;6.85;;;2.30;;
52816;SDS011;38687;43.330;21.924;2024-03-29T12:20:56;8.18;;;1.95;;
52816;SDS011;38687;43.330;21.924;2024-03-29T12:23:22;2.40;;;1.60;;
52816;SDS011;38687;43.330;21.924;2024-03-29T12:25:48;7.53;;;2.15;;
52816;SDS011;38687;43.330;21.924;2024-03-29T12:28:14;5.93;;;1.70;;
52816;SDS011;38687;43.330;21.924;2024-03-29T12:30:40;3.28;;;2.13;;
52816;SDS011;38687;43.330;21.924;2024-03-29T12:33:06;4.95;;;1.80;;
52816;SDS011;38687;43.330;21.924;2024-03-29T12:35:32;4.72;;;2.00;;
52816;SDS011;38687;43.330;21.924;2024-03-29T12:38:02;5.03;;;1.55;;
52816;SDS011;38687;43.330;21.924;2024-03-29T12:40:28;4.40;;;1.50;;
52816;SDS011;38687;43.330;21.924;2024-03-29T12:42:55;4.20;;;1.60;;
52816;SDS011;38687;43.330;21.924;2024-03-29T12:45:21;7.22;;;2.20;;
52816;SDS011;38687;43.330;21.924;2024-03-29T12:47:49;5.63;;;1.70;;
52816;SDS011;38687;43.330;21.924;2024-03-29T12:52:50;4.55;;;1.50;;
52816;SDS011;38687;43.330;21.924;2024-03-29T12:55:18;5.22;;;1.95;;
52816;SDS011;38687;43.330;21.924;2024-03-29T12:57:43;5.18;;;1.73;;
52816;SDS011;38687;43.330;21.924;2024-03-29T13:00:10;7.53;;;1.90;;
52816;SDS011;38687;43.330;21.924;2024-03-29T13:02:36;5.53;;;1.38;;
52816;SDS011;38687;43.330;21.924;2024-03-29T13:05:05;3.38;;;1.50;;
52816;SDS011;38687;43.330;21.924;2024-03-29T13:07:31;4.35;;;1.80;;
52816;SDS011;38687;43.330;21.924;2024-03-29T13:09:56;4.03;;;1.80;;
52816;SDS011;38687;43.330;21.924;2024-03-29T13:12:24;7.93;;;2.17;;
52816;SDS011;38687;43.330;21.924;2024-03-29T13:14:49;8.02;;;1.80;;
52816;SDS011;38687;43.330;21.924;2024-03-29T13:17:14;3.97;;;1.63;;
52816;SDS011;38687;43.330;21.924;2024-03-29T13:19:39;3.85;;;1.55;;
52816;SDS011;38687;43.330;21.924;2024-03-29T13:22:05;7.93;;;2.00;;
52816;SDS011;38687;43.330;21.924;2024-03-29T13:24:31;4.03;;;1.70;;
52816;SDS011;38687;43.330;21.924;2024-03-29T13:26:57;7.18;;;1.52;;
52816;SDS011;38687;43.330;21.924;2024-03-29T13:29:22;4.07;;;1.63;;
52816;SDS011;38687;43.330;21.924;2024-03-29T13:31:47;9.30;;;2.07;;
52816;SDS011;38687;43.330;21.924;2024-03-29T13:34:12;4.90;;;2.38;;
52816;SDS011;38687;43.330;21.924;2024-03-29T13:36:38;4.53;;;1.90;;
52816;SDS011;38687;43.330;21.924;2024-03-29T13:39:04;5.10;;;2.17;;
52816;SDS011;38687;43.330;21.924;2024-03-29T13:41:30;6.38;;;1.80;;
52816;SDS011;38687;43.330;21.924;2024-03-29T13:43:56;5.57;;;1.65;;
52816;SDS011;38687;43.330;21.924;2024-03-29T13:46:22;5.00;;;1.60;;
52816;SDS011;38687;43.330;21.924;2024-03-29T13:48:48;7.15;;;2.00;;
52816;SDS011;38687;43.330;21.924;2024-03-29T13:51:13;4.70;;;1.80;;
52816;SDS011;38687;43.330;21.924;2024-03-29T13:53:41;6.88;;;2.40;;
52816;SDS011;38687;43.330;21.924;2024-03-29T13:56:06;4.97;;;1.88;;
52816;SDS011;38687;43.330;21.924;2024-03-29T13:58:31;6.15;;;1.98;;
52816;SDS011;38687;43.330;21.924;2024-03-29T14:00:57;5.40;;;1.93;;
52816;SDS011;38687;43.330;21.924;2024-03-29T14:03:25;4.60;;;1.67;;
52816;SDS011;38687;43.330;21.924;2024-03-29T14:05:50;6.35;;;1.90;;
52816;SDS011;38687;43.330;21.924;2024-03-29T14:08:15;4.97;;;2.10;;
52816;SDS011;38687;43.330;21.924;2024-03-29T14:10:41;6.63;;;1.90;;
52816;SDS011;38687;43.330;21.924;2024-03-29T14:13:07;6.93;;;2.03;;
52816;SDS011;38687;43.330;21.924;2024-03-29T14:15:34;7.80;;;2.05;;
52816;SDS011;38687;43.330;21.924;2024-03-29T14:17:59;5.05;;;2.47;;
52816;SDS011;38687;43.330;21.924;2024-03-29T14:20:24;5.70;;;1.83;;
52816;SDS011;38687;43.330;21.924;2024-03-29T14:22:49;5.73;;;1.83;;
52816;SDS011;38687;43.330;21.924;2024-03-29T14:25:19;4.93;;;2.10;;
52816;SDS011;38687;43.330;21.924;2024-03-29T14:27:44;3.78;;;2.50;;